sensor_id;sensor_type;location;lat;lon;timestamp;temperature;humidity
36552;DHT22;22559;54.176;12.102;2023-05-10T00:02:21;12.20;99.90
36552;DHT22;22559;54.176;12.102;2023-05-10T00:04:47;12.20;99.90
36552;DHT22;22559;54.176;12.102;2023-05-10T00:07:13;12.10;99.90
36552;DHT22;22559;54.176;12.102;2023-05-10T00:09:38;12.10;99.90
36552;DHT22;22559;54.176;12.102;2023-05-10T00:12:04;12.10;99.90
36552;DHT22;22559;54.176;12.102;2023-05-10T00:14:30;12.00;99.90
36552;DHT22;22559;54.176;12.102;2023-05-10T00:16:55;12.00;99.90
36552;DHT22;22559;54.176;12.102;2023-05-10T00:19:21;11.90;99.90
36552;DHT22;22559;54.176;12.102;2023-05-10T00:21:47;11.90;99.90
36552;DHT22;22559;54.176;12.102;2023-05-10T00:24:12;11.90;99.90
36552;DHT22;22559;54.176;12.102;2023-05-10T00:26:38;11.90;99.90
36552;DHT22;22559;54.176;12.102;2023-05-10T00:29:03;11.80;99.90
36552;DHT22;22559;54.176;12.102;2023-05-10T00:31:29;11.80;99.90
36552;DHT22;22559;54.176;12.102;2023-05-10T00:33:55;11.90;99.90
36552;DHT22;22559;54.176;12.102;2023-05-10T00:36:20;11.80;99.90
36552;DHT22;22559;54.176;12.102;2023-05-10T00:38:46;11.90;99.90
36552;DHT22;22559;54.176;12.102;2023-05-10T00:41:12;11.80;99.90
36552;DHT22;22559;54.176;12.102;2023-05-10T00:43:37;11.80;99.90
36552;DHT22;22559;54.176;12.102;2023-05-10T00:46:04;11.70;99.90
36552;DHT22;22559;54.176;12.102;2023-05-10T00:48:29;11.70;99.90
36552;DHT22;22559;54.176;12.102;2023-05-10T00:50:55;11.70;99.90
36552;DHT22;22559;54.176;12.102;2023-05-10T00:53:21;11.60;99.90
36552;DHT22;22559;54.176;12.102;2023-05-10T00:55:47;11.60;99.90
36552;DHT22;22559;54.176;12.102;2023-05-10T00:58:12;11.60;99.90
36552;DHT22;22559;54.176;12.102;2023-05-10T01:00:42;11.60;99.90
36552;DHT22;22559;54.176;12.102;2023-05-10T01:03:10;11.60;99.90
36552;DHT22;22559;54.176;12.102;2023-05-10T01:05:37;11.60;99.90
36552;DHT22;22559;54.176;12.102;2023-05-10T01:08:02;11.50;99.90
36552;DHT22;22559;54.176;12.102;2023-05-10T01:10:28;11.50;99.90
36552;DHT22;22559;54.176;12.102;2023-05-10T01:12:54;11.50;99.90
36552;DHT22;22559;54.176;12.102;2023-05-10T01:15:20;11.50;99.90
36552;DHT22;22559;54.176;12.102;2023-05-10T01:17:47;11.50;99.90
36552;DHT22;22559;54.176;12.102;2023-05-10T01:20:14;11.50;99.90
36552;DHT22;22559;54.176;12.102;2023-05-10T01:33:56;11.40;99.90
36552;DHT22;22559;54.176;12.102;2023-05-10T01:36:32;11.40;99.90
36552;DHT22;22559;54.176;12.102;2023-05-10T01:39:15;11.40;99.90
36552;DHT22;22559;54.176;12.102;2023-05-10T01:47:09;11.30;99.90
36552;DHT22;22559;54.176;12.102;2023-05-10T01:49:41;11.20;99.90
36552;DHT22;22559;54.176;12.102;2023-05-10T01:52:12;11.10;99.90
36552;DHT22;22559;54.176;12.102;2023-05-10T01:54:42;11.10;99.90
36552;DHT22;22559;54.176;12.102;2023-05-10T01:57:10;11.10;99.90
36552;DHT22;22559;54.176;12.102;2023-05-10T01:59:39;11.10;99.90
36552;DHT22;22559;54.176;12.102;2023-05-10T02:02:07;11.10;99.90
36552;DHT22;22559;54.176;12.102;2023-05-10T02:04:37;11.00;99.90
36552;DHT22;22559;54.176;12.102;2023-05-10T02:07:05;11.00;99.90
36552;DHT22;22559;54.176;12.102;2023-05-10T02:09:32;11.00;99.90
36552;DHT22;22559;54.176;12.102;2023-05-10T02:12:00;10.90;99.90
36552;DHT22;22559;54.176;12.102;2023-05-10T02:14:30;10.90;99.90
36552;DHT22;22559;54.176;12.102;2023-05-10T02:16:58;10.90;99.90
36552;DHT22;22559;54.176;12.102;2023-05-10T02:19:26;10.90;99.90
36552;DHT22;22559;54.176;12.102;2023-05-10T02:21:52;10.80;99.90
36552;DHT22;22559;54.176;12.102;2023-05-10T02:24:20;10.80;99.90
36552;DHT22;22559;54.176;12.102;2023-05-10T02:26:47;10.80;99.90
36552;DHT22;22559;54.176;12.102;2023-05-10T02:29:15;10.80;99.90
36552;DHT22;22559;54.176;12.102;2023-05-10T02:31:42;10.70;99.90
36552;DHT22;22559;54.176;12.102;2023-05-10T02:34:10;10.70;99.90
36552;DHT22;22559;54.176;12.102;2023-05-10T02:36:37;10.70;99.90
36552;DHT22;22559;54.176;12.102;2023-05-10T02:39:04;10.70;99.90
36552;DHT22;22559;54.176;12.102;2023-05-10T02:41:34;10.60;99.90
36552;DHT22;22559;54.176;12.102;2023-05-10T02:44:02;10.60;99.90
36552;DHT22;22559;54.176;12.102;2023-05-10T02:46:29;10.60;99.90
36552;DHT22;22559;54.176;12.102;2023-05-10T02:48:55;10.60;99.90
36552;DHT22;22559;54.176;12.102;2023-05-10T02:51:28;10.60;99.90
36552;DHT22;22559;54.176;12.102;2023-05-10T02:53:55;10.60;99.90
36552;DHT22;22559;54.176;12.102;2023-05-10T02:56:30;10.60;99.90
36552;DHT22;22559;54.176;12.102;2023-05-10T02:58:57;10.60;99.90
36552;DHT22;22559;54.176;12.102;2023-05-10T03:01:23;10.60;99.90
36552;DHT22;22559;54.176;12.102;2023-05-10T03:03:48;10.60;99.90
36552;DHT22;22559;54.176;12.102;2023-05-10T03:06:14;10.50;99.90
36552;DHT22;22559;54.176;12.102;2023-05-10T03:08:42;10.60;99.90
36552;DHT22;22559;54.176;12.102;2023-05-10T03:17:00;10.50;99.90
36552;DHT22;22559;54.176;12.102;2023-05-10T03:19:43;10.50;99.90
36552;DHT22;22559;54.176;12.102;2023-05-10T03:22:10;10.50;99.90
36552;DHT22;22559;54.176;12.102;2023-05-10T03:24:39;10.50;99.90
36552;DHT22;22559;54.176;12.102;2023-05-10T03:27:07;10.50;99.90
36552;DHT22;22559;54.176;12.102;2023-05-10T03:29:33;10.50;99.90
36552;DHT22;22559;54.176;12.102;2023-05-10T03:31:59;10.50;99.90
36552;DHT22;22559;54.176;12.102;2023-05-10T03:34:25;10.50;99.90
36552;DHT22;22559;54.176;12.102;2023-05-10T03:36:52;10.50;99.90
36552;DHT22;22559;54.176;12.102;2023-05-10T03:39:17;10.50;99.90
36552;DHT22;22559;54.176;12.102;2023-05-10T03:41:43;10.50;99.90
36552;DHT22;22559;54.176;12.102;2023-05-10T03:44:09;10.50;99.90
36552;DHT22;22559;54.176;12.102;2023-05-10T03:46:35;10.50;99.90
36552;DHT22;22559;54.176;12.102;2023-05-10T03:49:00;10.50;99.90
36552;DHT22;22559;54.176;12.102;2023-05-10T03:51:26;10.50;99.90
36552;DHT22;22559;54.176;12.102;2023-05-10T03:53:54;10.50;99.90
36552;DHT22;22559;54.176;12.102;2023-05-10T03:56:20;10.40;99.90
36552;DHT22;22559;54.176;12.102;2023-05-10T03:58:46;10.50;99.90
36552;DHT22;22559;54.176;12.102;2023-05-10T04:01:12;10.50;99.90
36552;DHT22;22559;54.176;12.102;2023-05-10T04:03:38;10.50;99.90
36552;DHT22;22559;54.176;12.102;2023-05-10T04:06:04;10.50;99.90
36552;DHT22;22559;54.176;12.102;2023-05-10T04:08:30;10.50;99.90
36552;DHT22;22559;54.176;12.102;2023-05-10T04:11:08;10.50;99.90
36552;DHT22;22559;54.176;12.102;2023-05-10T04:13:34;10.50;99.90
36552;DHT22;22559;54.176;12.102;2023-05-10T04:16:00;10.50;99.90
36552;DHT22;22559;54.176;12.102;2023-05-10T04:18:26;10.50;99.90
36552;DHT22;22559;54.176;12.102;2023-05-10T04:20:51;10.50;99.90
36552;DHT22;22559;54.176;12.102;2023-05-10T04:23:17;10.60;99.90
36552;DHT22;22559;54.176;12.102;2023-05-10T04:25:43;10.60;99.90
36552;DHT22;22559;54.176;12.102;2023-05-10T04:28:08;10.60;99.90
36552;DHT22;22559;54.176;12.102;2023-05-10T04:30:34;10.60;99.90
36552;DHT22;22559;54.176;12.102;2023-05-10T04:33:00;10.60;99.90
36552;DHT22;22559;54.176;12.102;2023-05-10T04:35:27;10.70;99.90
36552;DHT22;22559;54.176;12.102;2023-05-10T04:37:53;10.70;99.90
36552;DHT22;22559;54.176;12.102;2023-05-10T04:40:19;10.70;99.90
36552;DHT22;22559;54.176;12.102;2023-05-10T04:42:45;10.70;99.90
36552;DHT22;22559;54.176;12.102;2023-05-10T04:45:11;10.80;99.90
36552;DHT22;22559;54.176;12.102;2023-05-10T04:47:37;10.80;99.90
36552;DHT22;22559;54.176;12.102;2023-05-10T04:50:03;10.80;99.90
36552;DHT22;22559;54.176;12.102;2023-05-10T04:52:29;10.80;99.90
36552;DHT22;22559;54.176;12.102;2023-05-10T04:54:54;10.90;99.90
36552;DHT22;22559;54.176;12.102;2023-05-10T04:57:20;10.90;99.90
36552;DHT22;22559;54.176;12.102;2023-05-10T04:59:46;10.90;99.90
36552;DHT22;22559;54.176;12.102;2023-05-10T05:02:12;11.00;99.90
36552;DHT22;22559;54.176;12.102;2023-05-10T05:04:37;11.00;99.90
36552;DHT22;22559;54.176;12.102;2023-05-10T05:07:03;11.00;99.90
36552;DHT22;22559;54.176;12.102;2023-05-10T05:09:29;11.10;99.90
36552;DHT22;22559;54.176;12.102;2023-05-10T05:11:54;11.10;99.90
36552;DHT22;22559;54.176;12.102;2023-05-10T05:14:20;11.20;99.90
36552;DHT22;22559;54.176;12.102;2023-05-10T05:16:53;11.30;99.90
36552;DHT22;22559;54.176;12.102;2023-05-10T05:19:19;11.30;99.90
36552;DHT22;22559;54.176;12.102;2023-05-10T05:21:44;11.30;99.90
36552;DHT22;22559;54.176;12.102;2023-05-10T05:26:38;11.40;99.90
36552;DHT22;22559;54.176;12.102;2023-05-10T05:29:04;11.40;99.90
36552;DHT22;22559;54.176;12.102;2023-05-10T05:31:30;11.50;99.90
36552;DHT22;22559;54.176;12.102;2023-05-10T05:33:56;11.60;99.90
36552;DHT22;22559;54.176;12.102;2023-05-10T05:36:21;11.60;99.90
36552;DHT22;22559;54.176;12.102;2023-05-10T05:38:47;11.60;99.90
36552;DHT22;22559;54.176;12.102;2023-05-10T05:41:13;11.70;99.90
36552;DHT22;22559;54.176;12.102;2023-05-10T05:43:38;11.70;99.90
36552;DHT22;22559;54.176;12.102;2023-05-10T05:46:04;11.80;99.90
36552;DHT22;22559;54.176;12.102;2023-05-10T05:48:30;11.90;99.90
36552;DHT22;22559;54.176;12.102;2023-05-10T05:50:57;11.90;99.90
36552;DHT22;22559;54.176;12.102;2023-05-10T05:53:23;12.00;99.90
36552;DHT22;22559;54.176;12.102;2023-05-10T05:55:57;12.10;99.90
36552;DHT22;22559;54.176;12.102;2023-05-10T05:58:23;12.20;99.90
36552;DHT22;22559;54.176;12.102;2023-05-10T06:00:49;12.40;99.90
36552;DHT22;22559;54.176;12.102;2023-05-10T06:03:15;12.50;99.90
36552;DHT22;22559;54.176;12.102;2023-05-10T06:05:41;12.60;99.90
36552;DHT22;22559;54.176;12.102;2023-05-10T06:08:07;12.70;99.90
36552;DHT22;22559;54.176;12.102;2023-05-10T06:10:36;12.70;99.90
36552;DHT22;22559;54.176;12.102;2023-05-10T06:13:01;12.90;99.90
36552;DHT22;22559;54.176;12.102;2023-05-10T06:15:27;13.00;99.90
36552;DHT22;22559;54.176;12.102;2023-05-10T06:17:53;13.00;99.90
36552;DHT22;22559;54.176;12.102;2023-05-10T06:20:18;13.00;99.90
36552;DHT22;22559;54.176;12.102;2023-05-10T06:22:44;13.10;99.90
36552;DHT22;22559;54.176;12.102;2023-05-10T06:25:10;13.10;99.90
36552;DHT22;22559;54.176;12.102;2023-05-10T06:27:36;13.20;99.90
36552;DHT22;22559;54.176;12.102;2023-05-10T06:30:02;13.20;99.90
36552;DHT22;22559;54.176;12.102;2023-05-10T06:32:28;13.30;99.90
36552;DHT22;22559;54.176;12.102;2023-05-10T06:34:54;13.40;99.90
36552;DHT22;22559;54.176;12.102;2023-05-10T06:37:19;13.50;99.90
36552;DHT22;22559;54.176;12.102;2023-05-10T06:39:45;13.60;99.90
36552;DHT22;22559;54.176;12.102;2023-05-10T06:42:11;13.80;99.90
36552;DHT22;22559;54.176;12.102;2023-05-10T06:44:36;14.00;99.90
36552;DHT22;22559;54.176;12.102;2023-05-10T06:47:02;14.40;99.90
36552;DHT22;22559;54.176;12.102;2023-05-10T06:49:28;14.50;99.90
36552;DHT22;22559;54.176;12.102;2023-05-10T06:51:55;14.70;99.90
36552;DHT22;22559;54.176;12.102;2023-05-10T06:54:20;14.80;99.90
36552;DHT22;22559;54.176;12.102;2023-05-10T06:56:46;14.90;99.90
36552;DHT22;22559;54.176;12.102;2023-05-10T06:59:12;15.00;99.90
36552;DHT22;22559;54.176;12.102;2023-05-10T07:01:39;15.10;99.90
36552;DHT22;22559;54.176;12.102;2023-05-10T07:04:05;15.20;99.90
36552;DHT22;22559;54.176;12.102;2023-05-10T07:06:30;15.30;99.90
36552;DHT22;22559;54.176;12.102;2023-05-10T07:08:56;15.40;99.90
36552;DHT22;22559;54.176;12.102;2023-05-10T07:11:22;15.70;99.90
36552;DHT22;22559;54.176;12.102;2023-05-10T07:13:48;15.90;99.90
36552;DHT22;22559;54.176;12.102;2023-05-10T07:16:13;16.10;99.90
36552;DHT22;22559;54.176;12.102;2023-05-10T07:18:39;16.00;99.90
36552;DHT22;22559;54.176;12.102;2023-05-10T07:21:04;16.00;99.90
36552;DHT22;22559;54.176;12.102;2023-05-10T07:23:30;16.00;99.90
36552;DHT22;22559;54.176;12.102;2023-05-10T07:25:56;16.10;99.90
36552;DHT22;22559;54.176;12.102;2023-05-10T07:28:23;16.40;99.90
36552;DHT22;22559;54.176;12.102;2023-05-10T07:30:49;16.70;99.90
36552;DHT22;22559;54.176;12.102;2023-05-10T07:33:15;16.70;99.90
36552;DHT22;22559;54.176;12.102;2023-05-10T07:35:41;16.70;99.90
36552;DHT22;22559;54.176;12.102;2023-05-10T07:38:07;16.60;99.90
36552;DHT22;22559;54.176;12.102;2023-05-10T07:40:33;16.60;99.90
36552;DHT22;22559;54.176;12.102;2023-05-10T07:42:58;16.70;99.90
36552;DHT22;22559;54.176;12.102;2023-05-10T07:45:26;16.80;99.90
36552;DHT22;22559;54.176;12.102;2023-05-10T07:47:52;16.90;99.90
36552;DHT22;22559;54.176;12.102;2023-05-10T07:50:17;16.90;99.90
36552;DHT22;22559;54.176;12.102;2023-05-10T07:52:43;16.80;99.90
36552;DHT22;22559;54.176;12.102;2023-05-10T07:55:09;16.60;99.90
36552;DHT22;22559;54.176;12.102;2023-05-10T07:57:35;16.60;99.90
36552;DHT22;22559;54.176;12.102;2023-05-10T08:00:01;16.50;99.90
36552;DHT22;22559;54.176;12.102;2023-05-10T08:02:27;16.50;99.90
36552;DHT22;22559;54.176;12.102;2023-05-10T08:04:53;16.60;99.90
36552;DHT22;22559;54.176;12.102;2023-05-10T08:07:18;16.70;99.90
36552;DHT22;22559;54.176;12.102;2023-05-10T08:09:44;16.90;99.90
36552;DHT22;22559;54.176;12.102;2023-05-10T08:12:10;17.10;99.90
36552;DHT22;22559;54.176;12.102;2023-05-10T08:14:35;17.30;99.90
36552;DHT22;22559;54.176;12.102;2023-05-10T08:17:04;17.30;99.90
36552;DHT22;22559;54.176;12.102;2023-05-10T08:19:30;17.30;99.90
36552;DHT22;22559;54.176;12.102;2023-05-10T08:21:55;17.50;99.90
36552;DHT22;22559;54.176;12.102;2023-05-10T08:24:22;17.60;99.90
36552;DHT22;22559;54.176;12.102;2023-05-10T08:26:47;17.70;99.90
36552;DHT22;22559;54.176;12.102;2023-05-10T08:29:14;17.80;99.90
36552;DHT22;22559;54.176;12.102;2023-05-10T08:31:39;18.30;99.90
36552;DHT22;22559;54.176;12.102;2023-05-10T08:34:05;18.60;99.90
36552;DHT22;22559;54.176;12.102;2023-05-10T08:36:31;18.80;99.90
36552;DHT22;22559;54.176;12.102;2023-05-10T08:38:58;19.00;99.90
36552;DHT22;22559;54.176;12.102;2023-05-10T08:41:24;19.20;99.90
36552;DHT22;22559;54.176;12.102;2023-05-10T08:43:52;19.20;99.90
36552;DHT22;22559;54.176;12.102;2023-05-10T08:46:19;19.00;99.90
36552;DHT22;22559;54.176;12.102;2023-05-10T08:48:47;18.80;99.90
36552;DHT22;22559;54.176;12.102;2023-05-10T08:51:14;18.80;99.90
36552;DHT22;22559;54.176;12.102;2023-05-10T08:53:41;18.80;99.90
36552;DHT22;22559;54.176;12.102;2023-05-10T08:56:07;18.90;99.90
36552;DHT22;22559;54.176;12.102;2023-05-10T08:58:33;19.10;99.90
36552;DHT22;22559;54.176;12.102;2023-05-10T09:00:59;19.30;99.90
36552;DHT22;22559;54.176;12.102;2023-05-10T09:03:26;19.20;99.90
36552;DHT22;22559;54.176;12.102;2023-05-10T09:05:52;19.50;99.90
36552;DHT22;22559;54.176;12.102;2023-05-10T09:08:18;19.60;99.90
36552;DHT22;22559;54.176;12.102;2023-05-10T09:10:45;19.70;99.90
36552;DHT22;22559;54.176;12.102;2023-05-10T09:13:13;19.60;99.90
36552;DHT22;22559;54.176;12.102;2023-05-10T09:15:39;19.90;99.90
36552;DHT22;22559;54.176;12.102;2023-05-10T09:18:05;20.00;99.90
36552;DHT22;22559;54.176;12.102;2023-05-10T09:20:31;20.00;99.90
36552;DHT22;22559;54.176;12.102;2023-05-10T09:22:57;20.00;99.90
36552;DHT22;22559;54.176;12.102;2023-05-10T09:25:22;20.10;99.90
36552;DHT22;22559;54.176;12.102;2023-05-10T09:27:48;20.30;99.90
36552;DHT22;22559;54.176;12.102;2023-05-10T09:32:50;20.20;99.90
36552;DHT22;22559;54.176;12.102;2023-05-10T09:35:18;20.20;99.90
36552;DHT22;22559;54.176;12.102;2023-05-10T09:37:49;20.20;99.90
36552;DHT22;22559;54.176;12.102;2023-05-10T09:40:23;20.10;99.90
36552;DHT22;22559;54.176;12.102;2023-05-10T09:45:26;20.20;99.90
36552;DHT22;22559;54.176;12.102;2023-05-10T09:47:52;20.10;99.90
36552;DHT22;22559;54.176;12.102;2023-05-10T09:50:19;20.10;99.90
36552;DHT22;22559;54.176;12.102;2023-05-10T09:55:21;20.50;99.90
36552;DHT22;22559;54.176;12.102;2023-05-10T09:57:48;20.80;99.90
36552;DHT22;22559;54.176;12.102;2023-05-10T10:00:18;21.00;99.90
36552;DHT22;22559;54.176;12.102;2023-05-10T10:02:53;21.10;99.90
36552;DHT22;22559;54.176;12.102;2023-05-10T10:05:19;21.10;99.90
36552;DHT22;22559;54.176;12.102;2023-05-10T10:07:45;21.20;99.90
36552;DHT22;22559;54.176;12.102;2023-05-10T10:10:11;21.30;99.90
36552;DHT22;22559;54.176;12.102;2023-05-10T10:12:39;21.30;99.90
36552;DHT22;22559;54.176;12.102;2023-05-10T10:15:07;21.20;99.90
36552;DHT22;22559;54.176;12.102;2023-05-10T10:17:33;21.20;99.90
36552;DHT22;22559;54.176;12.102;2023-05-10T10:20:02;21.30;99.90
36552;DHT22;22559;54.176;12.102;2023-05-10T10:22:28;21.20;99.90
36552;DHT22;22559;54.176;12.102;2023-05-10T10:24:55;21.40;99.90
36552;DHT22;22559;54.176;12.102;2023-05-10T10:35:38;21.60;99.90
36552;DHT22;22559;54.176;12.102;2023-05-10T10:38:04;21.80;99.90
36552;DHT22;22559;54.176;12.102;2023-05-10T10:40:33;21.80;99.90
36552;DHT22;22559;54.176;12.102;2023-05-10T10:48:34;22.10;99.90
36552;DHT22;22559;54.176;12.102;2023-05-10T10:51:00;22.10;99.90
36552;DHT22;22559;54.176;12.102;2023-05-10T10:53:26;22.00;99.90
36552;DHT22;22559;54.176;12.102;2023-05-10T10:56:05;22.30;99.90
36552;DHT22;22559;54.176;12.102;2023-05-10T10:58:33;22.50;99.90
36552;DHT22;22559;54.176;12.102;2023-05-10T11:01:11;22.40;99.90
36552;DHT22;22559;54.176;12.102;2023-05-10T11:03:37;22.50;99.90
36552;DHT22;22559;54.176;12.102;2023-05-10T11:06:03;22.50;99.90
36552;DHT22;22559;54.176;12.102;2023-05-10T11:11:02;22.70;99.90
36552;DHT22;22559;54.176;12.102;2023-05-10T11:13:44;22.70;99.90
36552;DHT22;22559;54.176;12.102;2023-05-10T11:16:14;22.50;99.90
36552;DHT22;22559;54.176;12.102;2023-05-10T11:18:40;22.80;99.90
36552;DHT22;22559;54.176;12.102;2023-05-10T11:21:15;23.20;99.90
36552;DHT22;22559;54.176;12.102;2023-05-10T11:26:12;23.10;99.90
36552;DHT22;22559;54.176;12.102;2023-05-10T11:28:45;22.90;99.90
36552;DHT22;22559;54.176;12.102;2023-05-10T11:31:16;23.00;99.90
36552;DHT22;22559;54.176;12.102;2023-05-10T11:33:43;23.30;99.90
36552;DHT22;22559;54.176;12.102;2023-05-10T11:36:20;23.40;99.90
36552;DHT22;22559;54.176;12.102;2023-05-10T11:38:47;23.50;99.90
36552;DHT22;22559;54.176;12.102;2023-05-10T11:41:14;23.60;99.90
36552;DHT22;22559;54.176;12.102;2023-05-10T11:43:40;23.80;99.90
36552;DHT22;22559;54.176;12.102;2023-05-10T11:46:08;23.60;99.90
36552;DHT22;22559;54.176;12.102;2023-05-10T11:48:34;23.90;99.90
36552;DHT22;22559;54.176;12.102;2023-05-10T11:51:01;24.00;99.90
36552;DHT22;22559;54.176;12.102;2023-05-10T11:53:31;24.00;99.90
36552;DHT22;22559;54.176;12.102;2023-05-10T11:56:05;24.10;99.90
36552;DHT22;22559;54.176;12.102;2023-05-10T11:58:31;24.00;99.90
36552;DHT22;22559;54.176;12.102;2023-05-10T12:01:01;23.90;99.90
36552;DHT22;22559;54.176;12.102;2023-05-10T12:03:28;23.80;99.90
36552;DHT22;22559;54.176;12.102;2023-05-10T12:05:55;24.10;99.90
36552;DHT22;22559;54.176;12.102;2023-05-10T12:08:29;23.90;99.90
36552;DHT22;22559;54.176;12.102;2023-05-10T12:11:05;23.90;99.90
36552;DHT22;22559;54.176;12.102;2023-05-10T12:13:31;23.90;99.90
36552;DHT22;22559;54.176;12.102;2023-05-10T12:15:57;24.00;99.90
36552;DHT22;22559;54.176;12.102;2023-05-10T12:18:24;24.20;99.90
36552;DHT22;22559;54.176;12.102;2023-05-10T12:20:52;24.10;99.90
36552;DHT22;22559;54.176;12.102;2023-05-10T12:23:21;24.10;99.90
36552;DHT22;22559;54.176;12.102;2023-05-10T12:25:48;24.10;99.90
36552;DHT22;22559;54.176;12.102;2023-05-10T12:28:13;24.30;99.90
36552;DHT22;22559;54.176;12.102;2023-05-10T12:30:39;24.50;99.90
36552;DHT22;22559;54.176;12.102;2023-05-10T12:33:09;24.50;99.90
36552;DHT22;22559;54.176;12.102;2023-05-10T12:35:44;24.50;99.90
36552;DHT22;22559;54.176;12.102;2023-05-10T12:38:37;24.70;99.90
36552;DHT22;22559;54.176;12.102;2023-05-10T12:41:08;24.70;99.90
36552;DHT22;22559;54.176;12.102;2023-05-10T12:43:35;24.40;99.90
36552;DHT22;22559;54.176;12.102;2023-05-10T12:46:12;24.40;99.90
36552;DHT22;22559;54.176;12.102;2023-05-10T12:48:38;24.40;99.90
36552;DHT22;22559;54.176;12.102;2023-05-10T12:51:05;24.50;99.90
36552;DHT22;22559;54.176;12.102;2023-05-10T12:53:35;24.90;99.90
36552;DHT22;22559;54.176;12.102;2023-05-10T12:56:03;24.90;99.90
36552;DHT22;22559;54.176;12.102;2023-05-10T12:58:29;25.00;99.90
36552;DHT22;22559;54.176;12.102;2023-05-10T13:00:54;25.10;99.90
36552;DHT22;22559;54.176;12.102;2023-05-10T13:03:22;25.10;99.90
36552;DHT22;22559;54.176;12.102;2023-05-10T13:05:47;25.10;99.90
36552;DHT22;22559;54.176;12.102;2023-05-10T13:08:13;24.90;99.90
36552;DHT22;22559;54.176;12.102;2023-05-10T13:10:39;25.00;99.90
36552;DHT22;22559;54.176;12.102;2023-05-10T13:13:04;25.20;99.90
36552;DHT22;22559;54.176;12.102;2023-05-10T13:15:30;25.20;99.90
36552;DHT22;22559;54.176;12.102;2023-05-10T13:17:56;25.00;99.90
36552;DHT22;22559;54.176;12.102;2023-05-10T13:20:22;25.00;99.90
36552;DHT22;22559;54.176;12.102;2023-05-10T13:22:50;25.00;99.90
36552;DHT22;22559;54.176;12.102;2023-05-10T13:25:15;25.10;99.90
36552;DHT22;22559;54.176;12.102;2023-05-10T13:27:41;25.20;99.90
36552;DHT22;22559;54.176;12.102;2023-05-10T13:30:10;25.40;99.90
36552;DHT22;22559;54.176;12.102;2023-05-10T13:32:37;25.10;99.90
36552;DHT22;22559;54.176;12.102;2023-05-10T13:35:03;24.90;99.90
36552;DHT22;22559;54.176;12.102;2023-05-10T13:37:29;25.20;99.90
36552;DHT22;22559;54.176;12.102;2023-05-10T13:39:55;25.50;99.90
36552;DHT22;22559;54.176;12.102;2023-05-10T13:42:22;25.70;99.90
36552;DHT22;22559;54.176;12.102;2023-05-10T13:44:48;26.00;99.90
36552;DHT22;22559;54.176;12.102;2023-05-10T13:47:14;25.60;99.90
36552;DHT22;22559;54.176;12.102;2023-05-10T13:49:40;25.30;99.90
36552;DHT22;22559;54.176;12.102;2023-05-10T13:52:05;25.50;99.90
36552;DHT22;22559;54.176;12.102;2023-05-10T13:54:38;25.80;99.90
36552;DHT22;22559;54.176;12.102;2023-05-10T13:57:09;25.90;99.90
36552;DHT22;22559;54.176;12.102;2023-05-10T13:59:39;25.70;99.90
36552;DHT22;22559;54.176;12.102;2023-05-10T14:02:05;25.50;99.90
36552;DHT22;22559;54.176;12.102;2023-05-10T14:04:31;25.70;99.90
36552;DHT22;22559;54.176;12.102;2023-05-10T14:06:57;25.70;99.90
36552;DHT22;22559;54.176;12.102;2023-05-10T14:09:22;25.00;99.90
36552;DHT22;22559;54.176;12.102;2023-05-10T14:11:48;24.30;99.90
36552;DHT22;22559;54.176;12.102;2023-05-10T14:14:14;24.00;99.90
36552;DHT22;22559;54.176;12.102;2023-05-10T14:16:43;24.10;99.90
36552;DHT22;22559;54.176;12.102;2023-05-10T14:19:09;24.20;99.90
36552;DHT22;22559;54.176;12.102;2023-05-10T14:21:35;24.40;99.90
36552;DHT22;22559;54.176;12.102;2023-05-10T14:24:00;24.40;99.90
36552;DHT22;22559;54.176;12.102;2023-05-10T14:26:26;24.50;99.90
36552;DHT22;22559;54.176;12.102;2023-05-10T14:28:52;24.40;99.90
36552;DHT22;22559;54.176;12.102;2023-05-10T14:31:18;24.40;99.90
36552;DHT22;22559;54.176;12.102;2023-05-10T14:33:48;24.30;99.90
36552;DHT22;22559;54.176;12.102;2023-05-10T14:36:14;24.10;99.90
36552;DHT22;22559;54.176;12.102;2023-05-10T14:38:40;23.90;99.90
36552;DHT22;22559;54.176;12.102;2023-05-10T14:41:06;23.70;99.90
36552;DHT22;22559;54.176;12.102;2023-05-10T14:43:32;23.40;99.90
36552;DHT22;22559;54.176;12.102;2023-05-10T14:45:58;23.10;99.90
36552;DHT22;22559;54.176;12.102;2023-05-10T14:48:24;23.00;99.90
36552;DHT22;22559;54.176;12.102;2023-05-10T14:50:49;22.90;99.90
36552;DHT22;22559;54.176;12.102;2023-05-10T14:53:16;22.80;99.90
36552;DHT22;22559;54.176;12.102;2023-05-10T14:55:42;22.70;99.90
36552;DHT22;22559;54.176;12.102;2023-05-10T14:58:07;22.80;99.90
36552;DHT22;22559;54.176;12.102;2023-05-10T15:00:33;23.00;99.90
36552;DHT22;22559;54.176;12.102;2023-05-10T15:02:58;23.20;99.90
36552;DHT22;22559;54.176;12.102;2023-05-10T15:05:24;23.40;99.90
36552;DHT22;22559;54.176;12.102;2023-05-10T15:07:50;23.70;99.90
36552;DHT22;22559;54.176;12.102;2023-05-10T15:10:16;24.00;99.90
36552;DHT22;22559;54.176;12.102;2023-05-10T15:12:41;24.00;99.90
36552;DHT22;22559;54.176;12.102;2023-05-10T15:15:07;24.20;99.90
36552;DHT22;22559;54.176;12.102;2023-05-10T15:17:33;24.00;99.90
36552;DHT22;22559;54.176;12.102;2023-05-10T15:19:59;23.90;99.90
36552;DHT22;22559;54.176;12.102;2023-05-10T15:22:25;23.70;99.90
36552;DHT22;22559;54.176;12.102;2023-05-10T15:24:53;23.50;99.90
36552;DHT22;22559;54.176;12.102;2023-05-10T15:27:21;23.20;99.90
36552;DHT22;22559;54.176;12.102;2023-05-10T15:29:47;23.00;99.90
36552;DHT22;22559;54.176;12.102;2023-05-10T15:32:12;23.00;99.90
36552;DHT22;22559;54.176;12.102;2023-05-10T15:34:38;22.90;99.90
36552;DHT22;22559;54.176;12.102;2023-05-10T15:37:04;23.00;99.90
36552;DHT22;22559;54.176;12.102;2023-05-10T15:39:29;23.20;99.90
36552;DHT22;22559;54.176;12.102;2023-05-10T15:41:55;23.70;99.90
36552;DHT22;22559;54.176;12.102;2023-05-10T15:44:21;24.10;99.90
36552;DHT22;22559;54.176;12.102;2023-05-10T15:46:47;24.40;99.90
36552;DHT22;22559;54.176;12.102;2023-05-10T15:49:14;24.20;99.90
36552;DHT22;22559;54.176;12.102;2023-05-10T15:51:47;24.60;99.90
36552;DHT22;22559;54.176;12.102;2023-05-10T15:54:13;25.00;99.90
36552;DHT22;22559;54.176;12.102;2023-05-10T15:56:41;25.10;99.90
36552;DHT22;22559;54.176;12.102;2023-05-10T15:59:07;25.00;99.90
36552;DHT22;22559;54.176;12.102;2023-05-10T16:01:38;24.40;99.90
36552;DHT22;22559;54.176;12.102;2023-05-10T16:04:06;23.80;99.90
36552;DHT22;22559;54.176;12.102;2023-05-10T16:06:33;23.80;99.90